Colwyn Bay, United Kingdom
Current Conditions -  °F | °C
As of 1:50 PM on Monday 24 Nov 2014 (Local Time) from EGNR Reporting Station
Few Clouds Few Clouds  
Wind Chill: 11°   Ceiling: Unl
Heat Index: 11°   Visibility: 6mi
Dew Point:   Wind: 6mph
Humidity: 67%   Direction: 250°WSW
Pressure: 30.33"   Gusts: NA
Location:  53.29°N, 3.72°W
Report Text: EGNR 241350Z 25005KT 9999 FEW023 11/05 Q1027
Loading
Personal Weather Stations






























Interactive Weather Map New forecast layout! Learn more

10-Day Weather Forecast

Advertisements
Track Severe Weather on mobile